Time;durP1;ratioP1;P1;durP2;ratioP2;P2;SDS_P1;SDS_P2;PMS_P1;PMS_P2;Temp;Humidity;BMP_temperature;BMP_pressure;BME280_temperature;BME280_humidity;BME280_pressure;Samples;Min_cycle;Max_cycle;Signal;HPM_P1;HPM_P2
2023/04/27 00:01:33;;;;;;;4.27;2.03;;;;;;;7.85;64.96;63760.09;5053256;28;20596;-57
2023/04/27 00:03:59;;;;;;;6.87;2.33;;;;;;;7.84;65.14;63756.50;5053429;28;20205;-55
2023/04/27 00:06:26;;;;;;;9.23;2.30;;;;;;;7.80;64.96;63752.13;5053254;28;20660;-57
2023/04/27 00:08:51;;;;;;;7.10;2.10;;;;;;;7.80;64.35;63752.13;5035227;28;20355;-55
2023/04/27 00:11:17;;;;;;;4.93;2.40;;;;;;;7.79;65.24;63748.00;5053287;28;20268;-56
2023/04/27 00:13:42;;;;;;;7.00;1.90;;;;;;;7.79;65.17;63753.56;5053412;28;20616;-58
2023/04/27 00:16:07;;;;;;;5.23;2.33;;;;;;;7.77;64.55;63745.81;5053401;28;20648;-56
2023/04/27 00:18:33;;;;;;;5.30;2.53;;;;;;;7.65;64.74;63735.78;5052979;28;20206;-57
2023/04/27 00:20:58;;;;;;;5.27;1.87;;;;;;;7.62;65.61;63735.56;5052939;28;20703;-57
2023/04/27 00:23:25;;;;;;;8.70;2.43;;;;;;;7.53;64.68;63720.16;5053090;28;20288;-58
2023/04/27 00:25:51;;;;;;;4.07;2.23;;;;;;;7.50;64.76;63722.47;5052886;28;20663;-56
2023/04/27 00:28:16;;;;;;;3.37;2.20;;;;;;;7.46;64.98;63712.53;5052840;28;20205;-56
2023/04/27 00:30:41;;;;;;;6.13;2.40;;;;;;;7.49;65.60;63716.34;5052953;28;20268;-57
2023/04/27 00:33:07;;;;;;;6.93;2.27;;;;;;;7.43;65.66;63712.31;5052125;28;20216;-56
2023/04/27 00:35:32;;;;;;;4.97;1.90;;;;;;;7.35;65.97;63703.03;5052840;28;20192;-57
2023/04/27 00:37:58;;;;;;;3.20;1.73;;;;;;;7.28;65.32;63695.41;5052813;28;20707;-57
2023/04/27 00:40:23;;;;;;;10.63;2.30;;;;;;;7.36;65.60;63702.16;5052688;28;20679;-56
2023/04/27 00:42:49;;;;;;;3.03;1.87;;;;;;;7.32;64.96;63699.75;5052742;28;20188;-57
2023/04/27 00:45:15;;;;;;;4.60;2.67;;;;;;;7.26;65.70;63696.28;5052924;28;20243;-56
2023/04/27 00:47:41;;;;;;;5.17;2.27;;;;;;;7.18;65.88;63689.50;5052620;28;20271;-57
2023/04/27 00:50:09;;;;;;;8.33;2.87;;;;;;;7.16;65.70;63682.31;5052541;28;20197;-57
2023/04/27 00:52:35;;;;;;;5.67;1.87;;;;;;;7.19;65.91;63688.09;5052380;28;20671;-57
2023/04/27 00:55:03;;;;;;;6.23;2.23;;;;;;;7.28;66.80;63698.44;5052629;28;20198;-57
2023/04/27 00:57:28;;;;;;;7.03;2.00;;;;;;;7.21;66.11;63687.78;5052453;28;20186;-58
2023/04/27 00:59:54;;;;;;;4.97;2.40;;;;;;;7.09;67.08;63677.72;5052320;28;20225;-56
2023/04/27 01:02:19;;;;;;;5.40;2.10;;;;;;;7.06;66.24;63671.94;5052633;28;20231;-57
2023/04/27 01:04:45;;;;;;;10.87;2.03;;;;;;;7.01;66.63;63663.44;5033278;28;20217;-57
2023/04/27 01:07:11;;;;;;;3.73;1.80;;;;;;;6.99;66.80;63664.31;5052379;28;20182;-56
2023/04/27 01:09:36;;;;;;;2.87;2.00;;;;;;;6.96;67.13;63660.50;5052183;28;20217;-57
2023/04/27 01:12:02;;;;;;;6.43;2.30;;;;;;;6.93;67.23;63660.28;5052216;28;20666;-58
2023/04/27 01:14:27;;;;;;;5.93;1.97;;;;;;;6.98;66.89;63665.19;5052227;28;20223;-57
2023/04/27 01:16:53;;;;;;;2.90;1.80;;;;;;;7.00;67.12;63664.84;5052349;28;20178;-56
2023/04/27 01:19:18;;;;;;;4.30;1.77;;;;;;;6.94;67.25;63658.31;5052555;28;20644;-56
2023/04/27 01:21:44;;;;;;;5.37;1.93;;;;;;;6.89;66.92;63655.91;5052003;28;20580;-56
2023/04/27 01:24:09;;;;;;;4.00;1.93;;;;;;;6.94;67.23;63655.81;5052092;28;20205;-57
2023/04/27 01:26:35;;;;;;;6.40;1.60;;;;;;;6.77;67.90;63643.38;5034279;28;20247;-56
2023/04/27 01:29:00;;;;;;;3.53;2.10;;;;;;;6.88;67.55;63652.31;5052224;28;20665;-56
2023/04/27 01:31:26;;;;;;;4.10;1.90;;;;;;;6.86;67.39;63649.59;5052276;28;20197;-57
2023/04/27 01:33:52;;;;;;;4.70;1.67;;;;;;;6.78;67.62;63643.94;5051975;28;20683;-56
2023/04/27 01:36:17;;;;;;;4.17;2.27;;;;;;;6.79;67.31;63645.00;5052032;28;20193;-56
2023/04/27 01:38:43;;;;;;;10.43;2.27;;;;;;;6.73;67.61;63636.50;5051762;28;20270;-56
2023/04/27 01:41:08;;;;;;;2.90;1.90;;;;;;;6.74;68.17;63639.56;5051857;28;20225;-56
2023/04/27 01:43:37;;;;;;;7.63;2.00;;;;;;;6.68;67.38;63635.53;5052082;28;20267;-56
2023/04/27 01:46:07;;;;;;;7.27;2.77;;;;;;;6.65;68.02;63630.28;5051734;28;20276;-57
2023/04/27 01:48:34;;;;;;;9.17;2.03;;;;;;;6.69;68.26;63634.09;5051982;28;20694;-56
2023/04/27 01:50:59;;;;;;;4.27;2.10;;;;;;;6.73;68.13;63636.50;5051642;28;20277;-62
2023/04/27 01:53:25;;;;;;;5.30;2.00;;;;;;;6.65;67.59;63629.75;5051485;28;20692;-57
2023/04/27 01:55:50;;;;;;;7.23;2.20;;;;;;;6.65;67.34;63630.28;5051561;28;20285;-57
2023/04/27 01:58:16;;;;;;;2.30;1.90;;;;;;;6.61;67.04;63623.44;5033832;28;20585;-56
2023/04/27 02:00:41;;;;;;;5.63;1.97;;;;;;;6.58;68.28;63622.13;5051509;28;20319;-58
2023/04/27 02:03:06;;;;;;;3.13;1.80;;;;;;;6.57;68.06;63618.50;5051766;28;20233;-60
2023/04/27 02:05:32;;;;;;;2.43;1.73;;;;;;;6.57;67.47;63621.56;5051583;28;20251;-60
2023/04/27 02:07:57;;;;;;;3.13;1.77;;;;;;;6.57;67.36;63623.53;5051641;28;20209;-59
2023/04/27 02:10:23;;;;;;;5.17;2.03;;;;;;;6.58;67.13;63617.13;5051310;28;20185;-58
2023/04/27 02:12:48;;;;;;;5.00;1.90;;;;;;;6.61;66.99;63622.88;5051315;28;20189;-59
2023/04/27 02:15:14;;;;;;;4.77;1.70;;;;;;;6.51;66.92;63610.03;5050936;28;20622;-59
2023/04/27 02:17:39;;;;;;;3.93;1.93;;;;;;;6.58;66.49;63620.16;5050983;28;20238;-59
2023/04/27 02:20:06;;;;;;;5.27;2.00;;;;;;;6.54;67.28;63618.31;5051017;28;20213;-59
2023/04/27 02:22:31;;;;;;;3.23;1.97;;;;;;;6.43;67.54;63606.31;5050965;28;20227;-58
2023/04/27 02:24:58;;;;;;;5.37;2.03;;;;;;;6.52;67.48;63616.13;5033167;28;20202;-59
2023/04/27 02:27:23;;;;;;;3.90;2.00;;;;;;;6.42;67.78;63602.72;5033152;28;20213;-60
2023/04/27 02:29:49;;;;;;;7.57;1.90;;;;;;;6.46;67.75;63606.53;5051192;28;20244;-60
2023/04/27 02:32:14;;;;;;;4.73;1.60;;;;;;;6.40;68.06;63603.03;5051146;28;20277;-58
2023/04/27 02:34:40;;;;;;;3.70;1.93;;;;;;;6.36;67.65;63598.66;5051300;28;20741;-58
2023/04/27 02:37:05;;;;;;;7.47;2.40;;;;;;;6.37;67.47;63599.22;5050935;28;20181;-59
2023/04/27 02:39:31;;;;;;;5.70;2.63;;;;;;;6.37;67.16;63597.28;5032946;28;20217;-59
2023/04/27 02:41:57;;;;;;;7.90;2.30;;;;;;;6.41;67.78;63603.56;5050863;28;20174;-58
2023/04/27 02:44:22;;;;;;;5.00;1.80;;;;;;;6.41;67.59;63601.06;5050685;28;20220;-59
2023/04/27 02:46:49;;;;;;;4.63;1.77;;;;;;;6.40;66.74;63600.53;5050849;28;20273;-61
2023/04/27 02:49:15;;;;;;;3.83;1.93;;;;;;;6.37;67.32;63597.28;5050984;28;20247;-60
2023/04/27 02:51:41;;;;;;;3.77;1.97;;;;;;;6.29;67.10;63591.06;5050711;28;20212;-60
2023/04/27 02:54:06;;;;;;;5.00;1.80;;;;;;;6.44;66.20;63604.34;5050870;28;20668;-60
2023/04/27 02:56:32;;;;;;;5.43;1.87;;;;;;;6.35;66.96;63597.03;5051069;28;20290;-60
2023/04/27 02:58:57;;;;;;;5.67;2.23;;;;;;;6.34;67.53;63595.97;5050893;28;20717;-59
2023/04/27 03:01:22;;;;;;;2.13;1.90;;;;;;;6.33;66.85;63595.41;5050718;28;20296;-60
2023/04/27 03:03:48;;;;;;;4.33;2.13;;;;;;;6.33;66.66;63600.41;5050762;28;20705;-60
2023/04/27 03:06:13;;;;;;;7.40;2.10;;;;;;;6.41;66.73;63604.13;5050696;28;20785;-59
2023/04/27 03:08:39;;;;;;;5.73;1.97;;;;;;;6.38;66.70;63598.34;5050483;28;20729;-60
2023/04/27 03:11:05;;;;;;;8.30;2.30;;;;;;;6.36;67.03;63600.66;5050451;28;20555;-58
2023/04/27 03:13:34;;;;;;;4.63;1.90;;;;;;;6.35;67.50;63597.59;5050645;28;20197;-59
2023/04/27 03:16:00;;;;;;;6.73;1.90;;;;;;;6.35;66.64;63597.59;5050481;28;20189;-57
2023/04/27 03:18:26;;;;;;;3.70;2.17;;;;;;;6.32;66.67;63593.78;5050159;28;20223;-57
2023/04/27 03:20:51;;;;;;;2.07;1.63;;;;;;;6.27;66.27;63588.31;5050072;28;20691;-57
2023/04/27 03:23:16;;;;;;;4.83;2.20;;;;;;;6.34;66.02;63594.00;5032366;28;20208;-59
2023/04/27 03:25:42;;;;;;;11.80;2.53;;;;;;;6.31;66.12;63595.19;5050266;28;20192;-59
2023/04/27 03:28:07;;;;;;;3.23;2.07;;;;;;;6.24;66.34;63585.59;5033496;28;20217;-59
2023/04/27 03:30:33;;;;;;;4.23;2.30;;;;;;;6.21;66.05;63577.34;5053796;28;20185;-60
2023/04/27 03:32:58;;;;;;;5.37;2.40;;;;;;;6.20;66.96;63580.72;5053946;28;20259;-60
2023/04/27 03:35:23;;;;;;;4.17;2.17;;;;;;;6.22;66.60;63580.38;5035858;28;20690;-60
2023/04/27 03:37:49;;;;;;;6.57;2.30;;;;;;;6.18;66.43;63576.03;5053795;28;20196;-60
2023/04/27 03:40:15;;;;;;;7.93;2.07;;;;;;;6.12;66.98;63569.50;5053554;28;20202;-58
2023/04/27 03:42:40;;;;;;;10.13;2.97;;;;;;;6.23;67.39;63583.97;5053695;28;20389;-58
2023/04/27 03:45:06;;;;;;;5.83;2.60;;;;;;;6.35;67.14;63597.59;5053713;28;20196;-59
2023/04/27 03:47:32;;;;;;;6.90;1.73;;;;;;;6.22;66.61;63580.91;5053852;28;20366;-59
2023/04/27 03:49:57;;;;;;;4.83;2.07;;;;;;;6.16;67.09;63574.38;5053452;28;20270;-59
2023/04/27 03:52:23;;;;;;;6.43;2.20;;;;;;;6.21;66.97;63582.34;5053421;28;20188;-58
2023/04/27 03:54:49;;;;;;;5.60;2.20;;;;;;;6.14;66.92;63572.19;5053340;28;20217;-59
2023/04/27 03:57:15;;;;;;;6.60;2.40;;;;;;;6.13;67.05;63573.06;5053354;28;20263;-58
2023/04/27 03:59:40;;;;;;;7.53;2.10;;;;;;;6.19;66.71;63579.59;5053495;28;20683;-58
2023/04/27 04:02:07;;;;;;;5.83;2.30;;;;;;;6.20;66.75;63578.22;5053380;28;20188;-59
2023/04/27 04:04:32;;;;;;;7.43;1.90;;;;;;;6.18;66.24;63576.56;5053506;28;20217;-58
2023/04/27 04:06:58;;;;;;;5.23;1.90;;;;;;;6.04;66.05;63560.78;5053407;28;20188;-58
2023/04/27 04:09:23;;;;;;;5.00;2.37;;;;;;;6.14;66.64;63572.19;5053103;28;20213;-58
2023/04/27 04:11:50;;;;;;;8.10;2.70;;;;;;;6.11;66.70;63568.94;5053276;28;20589;-57
2023/04/27 04:14:15;;;;;;;6.33;2.73;;;;;;;6.11;66.22;63566.44;5053086;28;20714;-56
2023/04/27 04:16:40;;;;;;;4.90;2.30;;;;;;;6.08;66.09;63568.16;5053088;28;20204;-55
2023/04/27 04:19:06;;;;;;;5.30;2.30;;;;;;;6.13;66.22;63573.63;5053403;28;20585;-56
2023/04/27 04:21:31;;;;;;;5.17;1.90;;;;;;;6.08;65.35;63567.63;5035320;28;20659;-57
2023/04/27 04:23:57;;;;;;;6.73;2.27;;;;;;;6.16;65.81;63574.38;5053368;28;20224;-58
2023/04/27 04:26:22;;;;;;;6.83;2.47;;;;;;;6.11;65.72;63573.94;5052748;28;20185;-57
2023/04/27 04:28:48;;;;;;;3.13;1.93;;;;;;;6.04;65.63;63560.78;5053162;28;20209;-58
2023/04/27 04:31:16;;;;;;;8.03;2.67;;;;;;;6.00;66.20;63556.94;5052841;28;20197;-58
2023/04/27 04:33:41;;;;;;;9.97;2.93;;;;;;;6.05;66.42;63562.41;5052737;28;20292;-60
2023/04/27 04:36:07;;;;;;;4.63;2.30;;;;;;;6.16;66.02;63579.38;5052829;28;20260;-56
2023/04/27 04:38:32;;;;;;;4.10;2.30;;;;;;;6.26;66.34;63587.25;5052598;28;20220;-57
2023/04/27 04:40:58;;;;;;;6.07;2.77;;;;;;;6.29;65.92;63588.56;5051470;28;20633;-58
2023/04/27 04:43:23;;;;;;;6.23;2.00;;;;;;;6.24;64.94;63583.09;5053018;28;20197;-58
2023/04/27 04:45:49;;;;;;;8.10;2.67;;;;;;;6.27;65.50;63586.38;5052798;28;20692;-57
2023/04/27 04:48:15;;;;;;;8.10;3.03;;;;;;;6.20;64.88;63578.72;5034797;28;20316;-58
2023/04/27 04:50:40;;;;;;;8.93;2.57;;;;;;;6.22;65.39;63580.91;5034601;28;20326;-58
2023/04/27 04:53:06;;;;;;;2.73;2.40;;;;;;;6.12;65.08;63572.53;5052700;28;20213;-57
2023/04/27 04:55:32;;;;;;;5.50;2.40;;;;;;;6.27;65.53;63588.31;5052483;28;20276;-57
2023/04/27 04:57:57;;;;;;;9.00;2.90;;;;;;;6.33;65.33;63595.41;5052575;28;20206;-58
2023/04/27 05:00:23;;;;;;;3.03;2.30;;;;;;;6.43;64.96;63608.81;5034567;28;20209;-56
2023/04/27 05:02:49;;;;;;;4.03;2.83;;;;;;;6.49;64.35;63612.84;5052363;28;20603;-59
2023/04/27 05:05:14;;;;;;;3.37;1.80;;;;;;;6.50;64.24;63613.41;5052345;28;20572;-57
2023/04/27 05:07:40;;;;;;;8.13;2.90;;;;;;;6.63;64.36;63625.59;5052235;28;20672;-56
2023/04/27 05:10:06;;;;;;;8.43;2.67;;;;;;;6.62;64.44;63627.03;5052239;28;20224;-58
2023/04/27 05:12:31;;;;;;;5.07;2.70;;;;;;;6.75;64.21;63635.63;5052241;28;20656;-58
2023/04/27 05:14:57;;;;;;;8.73;2.43;;;;;;;6.79;64.36;63647.50;5052056;28;20220;-59
2023/04/27 05:17:23;;;;;;;7.90;2.70;;;;;;;6.96;63.42;63661.03;5052152;28;20181;-59
2023/04/27 05:19:48;;;;;;;10.20;2.87;;;;;;;6.78;63.21;63644.47;5052108;28;20225;-58
2023/04/27 05:22:13;;;;;;;4.13;2.70;;;;;;;7.00;62.27;63664.84;5052161;28;20276;-59
2023/04/27 05:24:39;;;;;;;5.03;2.57;;;;;;;6.89;62.68;63655.38;5052049;28;20245;-57
2023/04/27 05:27:05;;;;;;;4.93;2.50;;;;;;;6.88;63.04;63654.81;5051946;28;20181;-58
2023/04/27 05:29:30;;;;;;;8.57;2.33;;;;;;;6.94;62.44;63661.38;5052287;28;20279;-57
2023/04/27 05:31:56;;;;;;;5.77;3.03;;;;;;;6.94;62.31;63661.38;5051609;28;20189;-56
2023/04/27 05:34:21;;;;;;;6.83;2.37;;;;;;;6.67;63.72;63631.91;5052142;28;20215;-56
2023/04/27 05:36:46;;;;;;;6.70;2.67;;;;;;;6.85;64.05;63651.00;5051798;28;20655;-57
2023/04/27 05:39:13;;;;;;;5.27;2.40;;;;;;;6.76;63.56;63639.78;5051637;28;20292;-56
2023/04/27 05:41:38;;;;;;;7.53;2.53;;;;;;;6.87;63.35;63653.19;5051537;28;20672;-57
2023/04/27 05:44:04;;;;;;;5.77;2.60;;;;;;;6.93;63.21;63659.75;5051686;28;20205;-56
2023/04/27 05:46:30;;;;;;;5.37;2.67;;;;;;;7.01;63.39;63665.97;5051650;28;20264;-57
2023/04/27 05:48:55;;;;;;;5.93;2.40;;;;;;;7.02;63.04;63669.53;5033850;28;20227;-57
2023/04/27 05:51:21;;;;;;;8.53;2.77;;;;;;;6.77;62.81;63643.38;5050804;28;20196;-57
2023/04/27 05:53:47;;;;;;;7.10;2.60;;;;;;;6.72;64.39;63635.44;5051854;28;20209;-55
2023/04/27 05:56:12;;;;;;;6.07;2.70;;;;;;;6.87;63.84;63653.19;5033552;28;20663;-56
2023/04/27 05:58:38;;;;;;;6.13;2.70;;;;;;;6.91;63.41;63655.06;5051567;28;20292;-56
2023/04/27 06:01:03;;;;;;;3.37;2.87;;;;;;;6.99;64.04;63666.81;5051320;28;20240;-56
2023/04/27 06:03:30;;;;;;;4.00;2.70;;;;;;;7.00;62.46;63667.91;5051557;28;20784;-56
2023/04/27 06:05:57;;;;;;;9.93;2.73;;;;;;;6.83;63.65;63648.84;5051317;28;20242;-57
2023/04/27 06:08:22;;;;;;;11.47;2.47;;;;;;;6.93;63.81;63657.25;5051296;28;20213;-59
2023/04/27 06:10:50;;;;;;;4.63;2.60;;;;;;;7.02;64.23;63669.53;5051286;28;20708;-58
2023/04/27 06:13:16;;;;;;;4.43;2.20;;;;;;;7.00;63.91;63667.91;5051258;28;20217;-59
2023/04/27 06:15:41;;;;;;;3.47;2.70;;;;;;;7.11;64.24;63679.91;5033327;28;20196;-58
2023/04/27 06:18:07;;;;;;;5.83;3.53;;;;;;;6.99;63.22;63666.81;5051110;28;20691;-57
2023/04/27 06:20:32;;;;;;;4.30;2.60;;;;;;;6.98;63.97;63663.22;5051051;28;20217;-59
2023/04/27 06:23:00;;;;;;;8.37;2.70;;;;;;;7.29;64.12;63696.50;5051295;28;20209;-59
2023/04/27 06:25:28;;;;;;;4.87;3.23;;;;;;;7.46;62.48;63720.59;5051232;28;20201;-57
2023/04/27 06:27:55;;;;;;;7.37;2.60;;;;;;;7.43;62.64;63714.28;5050915;28;20201;-59
2023/04/27 06:30:21;;;;;;;8.57;2.90;;;;;;;7.52;62.62;63724.09;5050948;28;20280;-58
2023/04/27 06:32:47;;;;;;;11.13;2.70;;;;;;;7.39;62.22;63704.91;5032886;28;20288;-58
2023/04/27 06:35:13;;;;;;;4.20;2.70;;;;;;;7.50;62.04;63721.91;5050914;28;20216;-58
2023/04/27 06:37:38;;;;;;;8.90;3.17;;;;;;;7.59;62.74;63729.75;5032771;28;20281;-59
2023/04/27 06:40:07;;;;;;;8.43;2.87;;;;;;;7.56;61.77;63725.94;5050701;28;20752;-58
2023/04/27 06:42:33;;;;;;;4.40;2.70;;;;;;;7.67;62.33;63740.47;5032643;28;20297;-60
2023/04/27 06:45:00;;;;;;;5.13;2.60;;;;;;;7.76;61.08;63747.78;5050467;28;20205;-58
2023/04/27 06:47:25;;;;;;;8.77;2.67;;;;;;;7.80;61.17;63752.13;5050344;28;20196;-59
2023/04/27 06:49:51;;;;;;;4.80;2.53;;;;;;;7.94;61.03;63764.91;5049993;28;20294;-59
2023/04/27 06:52:22;;;;;;;6.93;3.03;;;;;;;8.09;60.61;63783.81;5049628;28;20615;-59
2023/04/27 06:54:48;;;;;;;5.43;2.77;;;;;;;8.05;60.04;63781.38;5050239;28;20224;-61
2023/04/27 06:57:13;;;;;;;9.60;2.83;;;;;;;8.16;59.85;63788.91;5048497;28;20589;-59
2023/04/27 06:59:39;;;;;;;3.67;2.37;;;;;;;8.29;59.83;63808.16;5050022;28;20312;-58
2023/04/27 07:02:04;;;;;;;6.20;2.83;;;;;;;8.41;59.40;63818.75;5050367;28;20189;-57
2023/04/27 07:04:30;;;;;;;2.90;2.60;;;;;;;8.72;59.16;63854.03;5050619;28;20225;-58
2023/04/27 07:06:56;;;;;;;5.73;2.67;;;;;;;8.93;57.42;63875.00;5050709;28;20189;-58
2023/04/27 07:09:27;;;;;;;6.47;2.90;;;;;;;8.92;57.47;63873.38;5050654;28;20627;-59
2023/04/27 07:11:53;;;;;;;9.63;3.17;;;;;;;9.23;55.78;63910.31;5050409;28;20295;-60
2023/04/27 07:14:19;;;;;;;9.67;3.27;;;;;;;9.29;55.60;63916.88;5049454;28;20204;-60
2023/04/27 07:16:45;;;;;;;7.70;3.63;;;;;;;9.42;55.68;63928.03;5050534;28;20600;-59
2023/04/27 07:19:10;;;;;;;6.10;2.50;;;;;;;9.46;55.48;63932.41;5050715;28;20217;-59
2023/04/27 07:21:36;;;;;;;7.80;2.43;;;;;;;9.66;54.68;63953.72;5050230;28;20268;-60
2023/04/27 07:24:02;;;;;;;3.17;2.67;;;;;;;10.11;55.31;64002.97;5048977;28;20734;-59
2023/04/27 07:26:30;;;;;;;5.23;2.73;;;;;;;9.90;53.60;63979.97;5050069;28;20189;-58
2023/04/27 07:28:56;;;;;;;3.00;2.30;;;;;;;9.87;53.43;63979.75;5050197;28;20699;-58
2023/04/27 07:31:21;;;;;;;6.03;2.50;;;;;;;9.91;52.90;63978.56;5050047;28;20181;-60
2023/04/27 07:33:47;;;;;;;4.80;2.27;;;;;;;9.68;53.79;63958.97;5032144;28;20228;-57
2023/04/27 07:36:12;;;;;;;7.80;3.30;;;;;;;9.73;54.28;63959.41;5050270;28;20684;-60
2023/04/27 07:38:38;;;;;;;5.97;2.87;;;;;;;10.09;53.61;64003.28;5048525;28;20213;-59
2023/04/27 07:41:04;;;;;;;4.90;2.80;;;;;;;9.89;52.46;63978.88;5049842;28;20233;-59
2023/04/27 07:43:31;;;;;;;7.27;3.10;;;;;;;10.07;52.41;64001.09;5050139;28;20213;-59
2023/04/27 07:45:57;;;;;;;6.60;3.00;;;;;;;10.03;51.42;63997.25;5049872;28;20668;-60
2023/04/27 07:48:23;;;;;;;5.37;3.40;;;;;;;10.08;51.56;64002.72;5050092;28;20402;-58
2023/04/27 07:50:49;;;;;;;2.97;2.37;;;;;;;10.42;50.10;64038.88;5049828;28;20189;-59
2023/04/27 07:53:15;;;;;;;6.93;2.83;;;;;;;10.45;49.60;64042.69;5050270;28;20297;-60
2023/04/27 07:55:42;;;;;;;6.53;2.63;;;;;;;10.19;49.50;64008.66;5049685;28;20251;-59
2023/04/27 07:58:08;;;;;;;4.97;2.60;;;;;;;10.28;50.12;64018.50;5049706;28;20210;-60
2023/04/27 08:00:33;;;;;;;4.23;2.27;;;;;;;10.18;49.55;64010.09;5049810;28;20210;-59
2023/04/27 08:02:58;;;;;;;5.27;2.53;;;;;;;10.41;49.14;64035.78;5049752;28;20687;-58
2023/04/27 08:05:24;;;;;;;3.87;2.23;;;;;;;10.48;49.34;64043.47;5049773;28;20185;-58
2023/04/27 08:07:52;;;;;;;5.37;2.47;;;;;;;10.90;49.21;64086.91;5049683;28;20707;-58
2023/04/27 08:10:17;;;;;;;4.10;2.37;;;;;;;11.07;47.89;64110.00;5049671;28;20182;-56
2023/04/27 08:12:43;;;;;;;2.87;2.27;;;;;;;10.94;47.00;64093.25;5049346;28;20662;-56
2023/04/27 08:15:09;;;;;;;4.33;2.20;;;;;;;10.93;47.42;64090.19;5034158;28;20197;-58
2023/04/27 08:17:35;;;;;;;4.17;2.17;;;;;;;10.46;48.11;64040.72;5052711;28;20216;-58
2023/04/27 08:20:01;;;;;;;4.23;2.30;;;;;;;10.37;47.93;64028.34;5052743;28;20725;-59
2023/04/27 08:22:27;;;;;;;7.27;2.33;;;;;;;10.90;47.12;64088.88;5052778;28;20194;-57
2023/04/27 08:24:52;;;;;;;3.47;2.10;;;;;;;11.37;47.03;64139.81;5035078;28;20217;-57
2023/04/27 08:27:18;;;;;;;5.03;2.20;;;;;;;11.38;46.29;64141.44;5052859;28;20572;-57
2023/04/27 08:29:47;;;;;;;6.40;2.07;;;;;;;10.97;47.36;64097.09;5053070;28;20216;-57
2023/04/27 08:32:13;;;;;;;5.17;2.50;;;;;;;11.14;48.51;64114.63;5052933;28;20189;-57
2023/04/27 08:34:39;;;;;;;3.33;2.50;;;;;;;10.92;47.52;64093.59;5052970;28;20213;-56
2023/04/27 08:37:05;;;;;;;4.20;2.60;;;;;;;10.86;47.06;64082.00;5052112;28;20192;-58
2023/04/27 08:39:30;;;;;;;3.80;2.60;;;;;;;10.75;47.81;64070.50;5050438;28;20618;-59
2023/04/27 08:41:55;;;;;;;6.60;3.03;;;;;;;10.72;48.28;64071.69;5050367;28;20181;-60
2023/04/27 08:44:21;;;;;;;8.13;3.23;;;;;;;10.75;48.96;64075.53;5050204;28;20289;-59
2023/04/27 08:46:47;;;;;;;5.03;2.93;;;;;;;11.50;49.98;64152.06;5050342;28;20652;-58
2023/04/27 08:49:13;;;;;;;2.67;2.10;;;;;;;11.78;47.71;64185.31;5050555;28;20304;-60
2023/04/27 08:51:39;;;;;;;3.57;2.40;;;;;;;11.36;46.95;64136.19;5050194;28;20743;-59
2023/04/27 08:54:04;;;;;;;5.27;2.40;;;;;;;10.96;47.85;64095.47;5052710;28;20754;-56
2023/04/27 08:56:30;;;;;;;5.87;2.57;;;;;;;10.79;48.16;64076.84;5052493;28;20273;-59
2023/04/27 08:58:57;;;;;;;4.13;2.63;;;;;;;11.16;48.17;64114.84;5052356;28;20647;-59
2023/04/27 09:01:24;;;;;;;3.63;2.53;;;;;;;11.11;48.22;64111.88;5052249;28;20666;-59
2023/04/27 09:03:57;;;;;;;5.03;2.37;;;;;;;11.01;48.17;64100.91;5052568;28;20729;-59
2023/04/27 09:06:34;;;;;;;6.50;3.23;;;;;;;10.78;48.47;64075.75;5052067;28;20220;-61
2023/04/27 09:09:02;;;;;;;7.07;2.40;;;;;;;10.65;49.42;64059.00;5052204;28;20686;-60
2023/04/27 09:11:36;;;;;;;2.60;2.33;;;;;;;10.72;49.01;64067.22;5051893;28;20189;-59
2023/04/27 09:14:23;;;;;;;6.40;2.77;;;;;;;11.44;50.24;64145.50;5052203;28;20216;-60
2023/04/27 09:16:58;;;;;;;4.80;2.47;;;;;;;11.69;47.53;64172.38;5051913;28;20169;-61
2023/04/27 09:19:26;;;;;;;4.50;2.37;;;;;;;11.60;46.30;64165.56;5050449;28;20294;-59
2023/04/27 09:22:06;;;;;;;6.00;3.13;;;;;;;12.01;46.51;64207.44;5051859;28;20174;-60
2023/04/27 09:24:32;;;;;;;6.23;2.90;;;;;;;12.50;45.55;64260.63;5052202;28;20209;-59
2023/04/27 09:26:58;;;;;;;4.37;2.03;;;;;;;12.02;45.21;64211.06;5050776;28;20176;-60
2023/04/27 09:29:37;;;;;;;3.77;2.37;;;;;;;11.38;46.65;64141.44;5051689;28;20217;-59
2023/04/27 09:32:15;;;;;;;4.20;2.30;;;;;;;11.30;47.10;64132.13;5051837;28;20429;-59
2023/04/27 09:34:41;;;;;;;5.13;2.57;;;;;;;11.51;47.11;64153.16;5052091;28;20236;-59
2023/04/27 09:37:06;;;;;;;4.37;2.47;;;;;;;11.58;46.45;64162.81;5051828;28;20182;-60
2023/04/27 09:39:33;;;;;;;3.77;2.60;;;;;;;11.35;46.71;64137.63;5052077;28;20313;-58
2023/04/27 09:41:59;;;;;;;3.67;2.40;;;;;;;11.27;47.09;64129.41;5051741;28;20181;-59
2023/04/27 09:44:27;;;;;;;2.67;1.83;;;;;;;11.53;46.61;64157.34;5051839;28;20663;-58
2023/04/27 09:46:56;;;;;;;5.40;3.50;;;;;;;12.36;46.99;64245.78;5051719;28;20186;-60
2023/04/27 09:49:24;;;;;;;5.90;2.53;;;;;;;12.25;45.64;64236.28;5051713;28;20233;-59
2023/04/27 09:51:50;;;;;;;3.53;2.10;;;;;;;11.96;45.11;64203.94;5051460;28;20200;-61
2023/04/27 09:54:16;;;;;;;5.73;3.77;;;;;;;12.47;45.14;64254.78;5051728;28;20214;-58
2023/04/27 09:56:56;;;;;;;3.93;2.43;;;;;;;13.18;44.40;64340.28;5051468;28;20215;-58
2023/04/27 09:59:46;;;;;;;4.80;2.03;;;;;;;12.68;43.43;64282.88;5052012;28;20213;-58
2023/04/27 10:02:15;;;;;;;3.50;2.83;;;;;;;11.92;44.19;64199.56;5051664;28;20244;-59
2023/04/27 10:04:59;;;;;;;4.93;2.40;;;;;;;11.76;44.67;64183.09;5051725;28;20213;-59
2023/04/27 10:07:27;;;;;;;3.70;2.00;;;;;;;12.24;44.37;64232.63;5033342;28;20203;-59
2023/04/27 10:09:52;;;;;;;3.77;1.73;;;;;;;12.51;44.03;64261.69;5033377;28;20240;-59
2023/04/27 10:12:20;;;;;;;4.90;2.30;;;;;;;12.50;44.70;64260.63;5051368;28;20668;-59
2023/04/27 10:14:57;;;;;;;1.93;1.83;;;;;;;12.59;45.37;64270.47;5033275;28;20232;-59
2023/04/27 10:17:28;;;;;;;2.87;2.07;;;;;;;12.09;44.46;64218.19;5033204;28;20200;-60
2023/04/27 10:20:06;;;;;;;8.10;2.60;;;;;;;12.23;45.94;64231.56;5051020;28;20214;-60
2023/04/27 10:22:40;;;;;;;2.80;2.10;;;;;;;11.76;44.83;64182.56;5051275;28;20191;-61
2023/04/27 10:25:23;;;;;;;14.87;5.07;;;;;;;11.73;44.85;64179.84;5051123;28;20240;-59
2023/04/27 10:27:52;;;;;;;3.80;2.87;;;;;;;11.77;44.92;64181.69;5051200;28;20219;-56
2023/04/27 10:30:19;;;;;;;26.50;7.43;;;;;;;12.05;44.15;64211.28;5050918;28;20190;-58
2023/04/27 10:32:56;;;;;;;19.87;5.40;;;;;;;12.99;44.40;64319.41;5050968;28;20643;-57
2023/04/27 10:35:32;;;;;;;6.17;1.90;;;;;;;12.79;43.48;64291.84;5051076;28;20670;-59
2023/04/27 10:38:23;;;;;;;3.03;1.87;;;;;;;12.74;43.90;64289.47;5050518;28;20304;-60
2023/04/27 10:41:04;;;;;;;4.87;2.43;;;;;;;12.28;43.55;64239.03;5050833;28;20248;-59
2023/04/27 10:43:31;;;;;;;6.23;2.63;;;;;;;12.97;43.54;64311.63;5051179;28;20217;-60
2023/04/27 10:46:12;;;;;;;3.23;2.13;;;;;;;13.41;41.40;64363.00;5050723;28;20268;-60
2023/04/27 10:48:38;;;;;;;6.20;1.80;;;;;;;13.35;41.09;64355.88;5050554;28;20300;-59
2023/04/27 10:51:04;;;;;;;3.67;1.90;;;;;;;13.09;41.04;64322.28;5050738;28;20217;-59
2023/04/27 10:53:36;;;;;;;4.13;1.90;;;;;;;13.17;42.97;64336.66;5050878;28;20275;-62
2023/04/27 10:56:05;;;;;;;2.60;1.73;;;;;;;13.44;42.85;64363.75;5050736;28;20243;-59
2023/04/27 10:58:31;;;;;;;3.03;1.70;;;;;;;13.57;42.21;64374.97;5032729;28;20674;-61
2023/04/27 11:00:57;;;;;;;3.00;1.70;;;;;;;13.59;41.16;64384.75;5050632;28;20262;-61
2023/04/27 11:03:23;;;;;;;3.67;2.17;;;;;;;13.16;41.03;64335.00;5050524;28;20221;-59
2023/04/27 11:06:04;;;;;;;3.05;1.75;;;;;;;13.92;39.96;64417.88;5050465;28;20194;-60
2023/04/27 11:08:31;;;;;;;3.33;2.17;;;;;;;13.53;39.97;64373.09;5050739;28;20267;-59
2023/04/27 11:10:57;;;;;;;4.15;1.70;;;;;;;13.16;40.46;64333.03;5050352;28;20197;-58
2023/04/27 11:13:24;;;;;;;1.50;1.40;;;;;;;13.08;40.52;64326.78;5050583;28;20205;-58
2023/04/27 11:15:56;;;;;;;4.97;1.80;;;;;;;12.73;40.42;64285.84;5050119;28;20197;-58
2023/04/27 11:18:23;;;;;;;3.60;1.90;;;;;;;12.66;40.37;64278.69;5050342;28;20216;-57
2023/04/27 11:21:04;;;;;;;2.60;1.97;;;;;;;12.71;40.94;64283.09;5050273;28;20213;-57
2023/04/27 11:23:35;;;;;;;3.03;1.97;;;;;;;12.61;41.20;64272.66;5050304;28;20266;-58
2023/04/27 11:26:13;;;;;;;2.28;1.88;;;;;;;12.66;40.95;64280.69;5050217;28;20193;-57
2023/04/27 11:28:39;;;;;;;4.00;1.70;;;;;;;13.03;41.08;64320.75;5049993;28;20262;-57
2023/04/27 11:31:05;;;;;;;2.80;1.90;;;;;;;12.63;40.69;64275.41;5050135;28;20190;-57
2023/04/27 11:33:31;;;;;;;5.13;1.83;;;;;;;12.51;41.52;64264.22;5049793;28;20209;-56
2023/04/27 11:35:58;;;;;;;5.93;1.70;;;;;;;12.74;42.63;64288.91;5049956;28;20189;-58
2023/04/27 11:38:23;;;;;;;2.80;2.10;;;;;;;12.74;43.93;64288.91;5050032;28;20298;-58